TimeCST,TemperatureF,Dew PointF,Humidity,Sea Level PressureIn,VisibilityMPH,Wind Direction,Wind SpeedMPH,Gust SpeedMPH,PrecipitationIn,Events,Conditions,WindDirDegrees,DateUTC
12:15 AM,28.4,19.4,69,29.74,10.0,SW,13.8,20.7,N/A,,Clear,230,2013-01-07 06:15:00
12:35 AM,26.6,19.4,74,29.75,10.0,SW,13.8,-,N/A,,Partly Cloudy,230,2013-01-07 06:35:00
12:55 AM,26.6,19.4,74,29.75,10.0,WSW,13.8,-,N/A,,Partly Cloudy,240,2013-01-07 06:55:00
1:15 AM,26.6,19.4,74,29.74,10.0,WSW,15.0,-,N/A,,Partly Cloudy,250,2013-01-07 07:15:00
1:35 AM,26.6,19.4,74,29.75,10.0,WSW,16.1,-,N/A,,Partly Cloudy,240,2013-01-07 07:35:00
1:55 AM,26.6,19.4,74,29.76,10.0,WSW,12.7,-,N/A,,Partly Cloudy,240,2013-01-07 07:55:00
2:15 AM,26.6,19.4,74,29.77,10.0,WSW,13.8,-,N/A,,Partly Cloudy,240,2013-01-07 08:15:00
2:35 AM,23.0,15.8,74,29.78,10.0,West,9.2,-,N/A,,Clear,260,2013-01-07 08:35:00
2:55 AM,24.8,17.6,74,29.78,10.0,WSW,9.2,-,N/A,,Partly Cloudy,250,2013-01-07 08:55:00
3:15 AM,23.0,15.8,74,29.79,10.0,West,8.1,-,N/A,,Clear,260,2013-01-07 09:15:00
3:35 AM,24.8,17.6,74,29.79,10.0,West,10.4,-,N/A,,Clear,260,2013-01-07 09:35:00
3:55 AM,24.8,17.6,74,29.79,10.0,WSW,8.1,-,N/A,,Clear,250,2013-01-07 09:55:00
4:15 AM,23.0,17.6,80,29.78,10.0,WSW,10.4,-,N/A,,Clear,240,2013-01-07 10:15:00
4:35 AM,24.8,17.6,74,29.78,10.0,SW,8.1,-,N/A,,Clear,230,2013-01-07 10:35:00
4:55 AM,24.8,17.6,74,29.78,10.0,WSW,8.1,-,N/A,,Partly Cloudy,240,2013-01-07 10:55:00
5:15 AM,21.2,15.8,80,29.79,10.0,WSW,6.9,-,N/A,,Partly Cloudy,250,2013-01-07 11:15:00
5:35 AM,21.2,15.8,80,29.79,10.0,WSW,9.2,-,N/A,,Partly Cloudy,240,2013-01-07 11:35:00
5:55 AM,21.2,15.8,80,29.79,10.0,WSW,6.9,-,N/A,,Partly Cloudy,250,2013-01-07 11:55:00
6:35 AM,23.0,15.8,74,29.79,10.0,SW,12.7,-,N/A,,Scattered Clouds,230,2013-01-07 12:35:00
6:55 AM,21.2,14.0,74,29.79,10.0,WSW,12.7,-,N/A,,Partly Cloudy,240,2013-01-07 12:55:00
7:15 AM,19.4,14.0,80,29.80,10.0,WSW,11.5,-,N/A,,Partly Cloudy,240,2013-01-07 13:15:00
7:35 AM,19.4,14.0,80,29.81,10.0,WSW,13.8,-,N/A,,Partly Cloudy,240,2013-01-07 13:35:00
7:55 AM,23.0,15.8,74,29.81,10.0,SW,15.0,-,N/A,,Clear,220,2013-01-07 13:55:00
8:15 AM,23.0,15.8,74,29.81,10.0,SW,15.0,19.6,N/A,,Clear,230,2013-01-07 14:15:00
8:35 AM,23.0,14.0,68,29.81,10.0,WSW,13.8,-,N/A,,Clear,250,2013-01-07 14:35:00
8:55 AM,21.2,14.0,74,29.82,10.0,West,9.2,-,N/A,,Clear,280,2013-01-07 14:55:00
9:15 AM,19.4,14.0,80,29.84,10.0,West,12.7,-,N/A,,Clear,280,2013-01-07 15:15:00
9:35 AM,21.2,14.0,74,29.84,10.0,West,10.4,-,N/A,,Clear,270,2013-01-07 15:35:00
9:55 AM,21.2,14.0,74,29.84,10.0,WSW,9.2,-,N/A,,Clear,240,2013-01-07 15:55:00
10:15 AM,23.0,14.0,68,29.85,10.0,West,11.5,-,N/A,,Clear,260,2013-01-07 16:15:00
10:35 AM,23.0,14.0,68,29.86,10.0,WSW,12.7,-,N/A,,Clear,250,2013-01-07 16:35:00
10:55 AM,23.0,15.8,74,29.86,10.0,WSW,12.7,-,N/A,,Clear,240,2013-01-07 16:55:00
11:15 AM,24.8,15.8,69,29.86,10.0,WSW,11.5,-,N/A,,Clear,240,2013-01-07 17:15:00
11:35 AM,24.8,17.6,74,29.84,10.0,SW,15.0,21.9,N/A,,Clear,230,2013-01-07 17:35:00
11:55 AM,26.6,17.6,69,29.84,10.0,WSW,17.3,-,N/A,,Clear,240,2013-01-07 17:55:00
12:15 PM,26.6,17.6,69,29.83,10.0,WSW,16.1,-,N/A,,Clear,240,2013-01-07 18:15:00
12:35 PM,26.6,19.4,74,29.83,10.0,WSW,16.1,-,N/A,,Clear,240,2013-01-07 18:35:00
1:15 PM,28.4,19.4,69,29.83,10.0,WSW,13.8,-,N/A,,Clear,250,2013-01-07 19:15:00
1:35 PM,28.4,19.4,69,29.82,10.0,WSW,11.5,-,N/A,,Clear,250,2013-01-07 19:35:00
1:55 PM,28.4,19.4,69,29.83,10.0,WSW,11.5,-,N/A,,Clear,240,2013-01-07 19:55:00
2:15 PM,30.2,21.2,69,29.83,10.0,West,11.5,-,N/A,,Clear,260,2013-01-07 20:15:00
2:35 PM,30.2,21.2,69,29.84,10.0,WSW,10.4,-,N/A,,Clear,250,2013-01-07 20:35:00
2:55 PM,30.2,21.2,69,29.84,10.0,WSW,6.9,-,N/A,,Clear,240,2013-01-07 20:55:00
3:15 PM,28.4,19.4,69,29.84,10.0,WSW,8.1,-,N/A,,Clear,240,2013-01-07 21:15:00
3:35 PM,28.4,19.4,69,29.84,10.0,WSW,8.1,-,N/A,,Clear,250,2013-01-07 21:35:00
3:55 PM,28.4,19.4,69,29.83,10.0,SW,4.6,-,N/A,,Clear,230,2013-01-07 21:55:00
4:15 PM,28.4,19.4,69,29.84,10.0,SW,4.6,-,N/A,,Clear,230,2013-01-07 22:15:00
4:35 PM,28.4,19.4,69,29.84,10.0,SW,4.6,-,N/A,,Clear,230,2013-01-07 22:35:00
5:15 PM,23.0,15.8,74,29.83,10.0,West,9.2,-,N/A,,Clear,260,2013-01-07 23:15:00
5:35 PM,23.0,17.6,80,29.83,10.0,SW,5.8,-,N/A,,Clear,230,2013-01-07 23:35:00
5:55 PM,23.0,15.8,74,29.84,10.0,SW,5.8,-,N/A,,Clear,220,2013-01-07 23:55:00
6:15 PM,17.6,10.4,73,29.83,10.0,SSW,6.9,-,N/A,,Clear,210,2013-01-08 00:15:00
6:35 PM,23.0,15.8,74,29.83,10.0,SW,8.1,-,N/A,,Clear,220,2013-01-08 00:35:00
6:55 PM,23.0,15.8,74,29.83,10.0,SW,6.9,-,N/A,,Clear,220,2013-01-08 00:55:00
7:15 PM,14.0,10.4,86,29.83,10.0,Calm,Calm,-,N/A,,Clear,0,2013-01-08 01:15:00
7:35 PM,17.6,14.0,86,29.83,10.0,Calm,Calm,-,N/A,,Clear,0,2013-01-08 01:35:00
7:55 PM,12.2,6.8,79,29.83,10.0,SSW,8.1,-,N/A,,Clear,200,2013-01-08 01:55:00
8:15 PM,15.8,10.4,79,29.83,10.0,SSW,6.9,-,N/A,,Clear,200,2013-01-08 02:15:00
8:35 PM,12.2,8.6,85,29.82,10.0,WNW,3.5,-,N/A,,Clear,300,2013-01-08 02:35:00
8:55 PM,10.4,6.8,85,29.81,10.0,Calm,Calm,-,N/A,,Clear,0,2013-01-08 02:55:00
9:35 PM,6.8,3.2,85,29.80,10.0,Calm,Calm,-,N/A,,Clear,0,2013-01-08 03:35:00
9:55 PM,6.8,3.2,85,29.79,10.0,Calm,Calm,-,N/A,,Clear,0,2013-01-08 03:55:00
10:15 PM,6.8,3.2,85,29.78,10.0,SW,3.5,-,N/A,,Clear,220,2013-01-08 04:15:00
10:55 PM,1.4,-0.4,92,29.77,10.0,Calm,Calm,-,N/A,,Clear,0,2013-01-08 04:55:00
11:15 PM,1.4,-0.4,92,29.76,10.0,Calm,Calm,-,N/A,,Clear,0,2013-01-08 05:15:00
11:35 PM,1.4,-0.4,92,29.76,10.0,Calm,Calm,-,N/A,,Clear,0,2013-01-08 05:35:00
11:55 PM,-0.4,-4.0,85,29.75,10.0,Calm,Calm,-,N/A,,Clear,0,2013-01-08 05:55:00